createdAt,value
2022-12-25T00:04:13.898Z,42.70
2022-12-25T00:09:15.695Z,57.60
2022-12-25T00:14:19.536Z,38.70
2022-12-25T00:19:21.080Z,37.90
2022-12-25T00:24:24.439Z,36.00
2022-12-25T00:29:26.028Z,30.50
2022-12-25T00:34:27.656Z,31.90
2022-12-25T00:39:29.360Z,26.70
2022-12-25T00:44:31.107Z,28.70
2022-12-25T00:49:32.764Z,61.60
2022-12-25T00:54:34.618Z,51.30
2022-12-25T00:59:36.311Z,29.50
2022-12-25T01:04:37.826Z,22.30
2022-12-25T01:09:58.148Z,21.80
2022-12-25T01:15:00.077Z,21.60
2022-12-25T01:20:02.210Z,21.70
2022-12-25T01:25:05.613Z,32.60
2022-12-25T01:30:08.349Z,26.50
2022-12-25T01:35:10.063Z,18.50
2022-12-25T01:40:11.939Z,23.70
2022-12-25T01:45:39.998Z,21.80
2022-12-25T01:50:53.121Z,45.60
2022-12-25T01:56:02.601Z,40.30
2022-12-25T02:01:04.198Z,34.30
2022-12-25T02:06:07.274Z,29.30
2022-12-25T02:11:28.885Z,29.10
2022-12-25T02:16:35.341Z,31.30
2022-12-25T02:22:22.606Z,28.80
2022-12-25T02:28:05.728Z,26.30
2022-12-25T02:33:38.653Z,32.30
2022-12-25T02:39:01.875Z,39.20
2022-12-25T02:44:32.647Z,34.20
2022-12-25T02:49:55.594Z,30.40
2022-12-25T02:55:25.545Z,88.00
2022-12-25T03:00:46.171Z,56.50
2022-12-25T03:06:09.261Z,44.50
2022-12-25T03:11:30.908Z,38.00
2022-12-25T03:16:54.852Z,28.00
2022-12-25T03:22:17.963Z,25.50
2022-12-25T03:27:19.535Z,26.50
2022-12-25T03:32:58.228Z,27.70
2022-12-25T03:38:46.160Z,31.60
2022-12-25T03:44:42.709Z,41.40
2022-12-25T03:50:11.763Z,38.90
2022-12-25T03:55:36.429Z,27.60
2022-12-25T04:00:57.034Z,26.20
2022-12-25T04:06:17.386Z,26.00
2022-12-25T04:11:37.734Z,26.80
2022-12-25T04:16:57.948Z,25.40
2022-12-25T04:22:18.309Z,24.70
2022-12-25T04:27:38.964Z,27.50
2022-12-25T04:32:59.339Z,28.10
2022-12-25T04:38:01.473Z,35.00
2022-12-25T04:43:03.200Z,35.00
2022-12-25T04:48:05.257Z,29.40
2022-12-25T04:53:06.758Z,34.00
2022-12-25T04:58:08.656Z,27.30
2022-12-25T05:03:10.274Z,35.50
2022-12-25T05:08:11.958Z,35.70
2022-12-25T05:13:13.632Z,38.00
2022-12-25T05:18:15.271Z,39.10
2022-12-25T05:23:16.781Z,39.40
2022-12-25T05:28:18.443Z,28.80
2022-12-25T05:33:19.958Z,31.50
2022-12-25T05:38:21.594Z,26.00
2022-12-25T05:43:23.547Z,25.80
2022-12-25T05:48:25.102Z,28.40
2022-12-25T05:53:26.639Z,33.90
2022-12-25T05:58:29.918Z,27.00
2022-12-25T06:03:31.582Z,35.20
2022-12-25T06:08:34.153Z,36.80
2022-12-25T06:13:36.564Z,34.90
2022-12-25T06:18:43.732Z,34.30
2022-12-25T06:23:45.428Z,33.10
2022-12-25T06:28:47.899Z,35.80
2022-12-25T06:33:50.203Z,33.40
2022-12-25T06:38:52.900Z,31.40
2022-12-25T06:44:00.038Z,38.60
2022-12-25T06:49:01.668Z,40.70
2022-12-25T06:54:04.115Z,30.00
2022-12-25T06:59:11.004Z,33.30
2022-12-25T07:04:31.487Z,27.30
2022-12-25T07:09:33.587Z,38.20
2022-12-25T07:14:35.167Z,72.20
2022-12-25T07:19:42.684Z,52.70
2022-12-25T07:24:46.370Z,56.80
2022-12-25T07:29:48.974Z,34.40
2022-12-25T07:34:50.634Z,38.20
2022-12-25T07:39:52.134Z,42.60
2022-12-25T07:44:53.625Z,46.70
2022-12-25T07:49:55.133Z,57.70
2022-12-25T07:54:56.653Z,52.00
2022-12-25T07:59:58.207Z,51.30
2022-12-25T08:04:59.818Z,46.70
2022-12-25T08:10:02.706Z,75.10
2022-12-25T08:15:05.068Z,83.80
2022-12-25T08:20:08.078Z,79.40
2022-12-25T08:25:09.692Z,67.50
2022-12-25T08:30:11.632Z,57.70
2022-12-25T08:35:13.134Z,54.70
2022-12-25T08:40:14.901Z,61.40
2022-12-25T08:45:16.505Z,53.10
2022-12-25T08:50:18.111Z,51.70
2022-12-25T08:55:19.645Z,50.90
2022-12-25T09:00:21.242Z,59.50
2022-12-25T09:05:22.892Z,65.80
2022-12-25T09:10:24.408Z,55.10
2022-12-25T09:15:26.069Z,60.60
2022-12-25T09:20:27.736Z,60.80
2022-12-25T09:25:29.368Z,77.60
2022-12-25T09:30:30.934Z,95.10
2022-12-25T09:35:32.511Z,88.70
2022-12-25T09:40:34.799Z,80.40
2022-12-25T09:45:38.952Z,87.00
2022-12-25T09:50:49.357Z,85.10
2022-12-25T09:56:17.061Z,89.70
2022-12-25T10:01:34.576Z,74.70
2022-12-25T10:07:17.325Z,97.50
2022-12-25T10:12:26.648Z,88.20
2022-12-25T10:18:13.472Z,52.20
2022-12-25T10:23:53.579Z,107.60
2022-12-25T10:29:06.009Z,60.70
2022-12-25T10:34:11.963Z,67.20
2022-12-25T10:39:23.983Z,53.80
2022-12-25T10:44:25.841Z,72.60
2022-12-25T10:49:38.282Z,83.80
2022-12-25T10:54:40.180Z,92.30
2022-12-25T10:59:46.159Z,97.20
2022-12-25T11:04:48.659Z,98.00
2022-12-25T11:10:05.559Z,139.20
2022-12-25T11:15:29.873Z,167.40
2022-12-25T11:20:32.662Z,114.60
2022-12-25T11:25:34.546Z,177.00
2022-12-25T11:30:37.757Z,134.10
2022-12-25T11:35:52.443Z,83.60
2022-12-25T11:40:59.003Z,87.90
2022-12-25T11:46:22.229Z,146.40
2022-12-25T11:51:31.646Z,84.50
2022-12-25T11:56:33.399Z,67.10
2022-12-25T12:01:44.240Z,74.30
2022-12-25T12:07:05.977Z,71.50
2022-12-25T12:12:46.669Z,80.10
2022-12-25T12:17:50.280Z,129.10
2022-12-25T12:22:52.236Z,94.10
2022-12-25T12:28:04.822Z,142.10
2022-12-25T12:33:20.586Z,61.20
2022-12-25T12:38:23.801Z,57.30
2022-12-25T12:43:47.729Z,57.30
2022-12-25T12:48:53.125Z,56.40
2022-12-25T12:54:27.321Z,56.70
2022-12-25T12:59:39.521Z,56.50
2022-12-25T13:05:06.374Z,60.30
2022-12-25T13:10:26.748Z,80.20
2022-12-25T13:15:34.365Z,70.90
2022-12-25T13:20:54.299Z,68.50
2022-12-25T13:26:00.290Z,92.80
2022-12-25T13:31:10.561Z,51.30
2022-12-25T13:36:13.947Z,45.40
2022-12-25T13:41:42.375Z,48.40
2022-12-25T13:46:44.018Z,55.30
2022-12-25T13:51:46.078Z,64.20
2022-12-25T13:56:53.617Z,61.40
2022-12-25T14:01:57.276Z,63.30
2022-12-25T14:07:10.250Z,63.80
2022-12-25T14:12:18.932Z,90.10
2022-12-25T14:17:22.876Z,99.00
2022-12-25T14:22:26.602Z,78.80
2022-12-25T14:27:32.089Z,52.60
2022-12-25T14:32:43.068Z,94.70
2022-12-25T14:37:45.575Z,79.30
2022-12-25T14:43:05.744Z,85.50
2022-12-25T14:48:25.736Z,69.40
2022-12-25T14:53:48.361Z,67.60
2022-12-25T14:58:57.625Z,72.50
2022-12-25T15:04:20.026Z,80.80
2022-12-25T15:09:23.564Z,71.10
2022-12-25T15:14:26.705Z,89.00
2022-12-25T15:19:38.224Z,99.00
2022-12-25T15:24:40.322Z,66.40
2022-12-25T15:35:04.676Z,65.30
2022-12-25T15:40:07.396Z,72.50
2022-12-25T15:45:30.406Z,49.30
2022-12-25T15:50:32.207Z,44.40
2022-12-25T15:55:34.018Z,40.80
2022-12-25T16:00:35.628Z,42.60
2022-12-25T16:05:37.252Z,59.00
2022-12-25T16:10:40.468Z,53.90
2022-12-25T16:15:42.120Z,63.90
2022-12-25T16:20:43.765Z,65.30
2022-12-25T16:25:45.534Z,53.70
2022-12-25T16:30:47.686Z,53.90
2022-12-25T16:35:50.747Z,55.50
2022-12-25T16:40:59.029Z,66.20
2022-12-25T16:46:00.820Z,70.70
2022-12-25T17:02:21.775Z,62.10
2022-12-25T17:07:23.541Z,59.80
2022-12-25T17:12:25.263Z,65.70
2022-12-25T17:17:26.834Z,68.20
2022-12-25T17:22:28.592Z,75.00
2022-12-25T17:27:30.305Z,73.50
2022-12-25T17:32:33.822Z,159.80
2022-12-25T17:37:35.326Z,121.60
2022-12-25T17:42:36.803Z,106.70
2022-12-25T17:47:38.274Z,87.20
2022-12-25T17:52:39.859Z,136.90
2022-12-25T17:57:41.510Z,137.90
2022-12-25T18:02:46.428Z,80.60
2022-12-25T18:07:48.320Z,117.80
2022-12-25T18:12:49.839Z,170.90
2022-12-25T18:17:51.386Z,188.80
2022-12-25T18:22:52.981Z,104.70
2022-12-25T18:27:55.913Z,99.60
2022-12-25T18:32:57.429Z,98.30
2022-12-25T18:37:59.099Z,172.60
2022-12-25T18:43:03.491Z,128.40
2022-12-25T18:48:06.714Z,125.80
2022-12-25T18:53:08.302Z,100.40
2022-12-25T18:58:09.800Z,101.10
2022-12-25T19:03:11.344Z,85.60
2022-12-25T19:08:13.489Z,85.30
2022-12-25T19:13:15.104Z,91.40
2022-12-25T19:18:16.725Z,68.20
2022-12-25T19:23:18.208Z,87.00
2022-12-25T19:28:20.636Z,90.30
2022-12-25T19:33:22.240Z,76.10
2022-12-25T19:38:23.745Z,80.00
2022-12-25T19:43:38.124Z,81.90
2022-12-25T19:48:39.687Z,94.00
2022-12-25T19:53:41.680Z,99.50
2022-12-25T19:58:43.743Z,96.50
2022-12-25T20:03:47.037Z,88.30
2022-12-25T20:08:53.072Z,93.20
2022-12-25T20:13:55.831Z,91.70
2022-12-25T20:18:58.779Z,88.40
2022-12-25T20:24:00.437Z,78.20
2022-12-25T20:29:04.291Z,90.20
2022-12-25T20:34:10.805Z,104.00
2022-12-25T20:39:12.497Z,113.40
2022-12-25T20:44:14.323Z,121.70
2022-12-25T20:49:15.891Z,102.10
2022-12-25T20:54:17.417Z,80.10
2022-12-25T20:59:18.931Z,115.90
2022-12-25T21:04:20.732Z,87.50
2022-12-25T21:09:22.344Z,76.60
2022-12-25T21:14:23.994Z,76.10
2022-12-25T21:19:25.539Z,81.30
2022-12-25T21:24:27.028Z,95.20
2022-12-25T21:29:28.705Z,89.10
2022-12-25T21:34:30.258Z,82.50
2022-12-25T21:39:31.806Z,74.30
2022-12-25T21:44:33.305Z,67.00
2022-12-25T21:49:53.708Z,74.10
2022-12-25T21:54:55.236Z,76.50
2022-12-25T21:59:56.731Z,94.50
2022-12-25T22:04:58.277Z,78.40
2022-12-25T22:09:59.844Z,119.40
2022-12-25T22:15:05.947Z,88.40
2022-12-25T22:20:12.474Z,78.10
2022-12-25T22:25:15.760Z,76.30
2022-12-25T22:30:22.270Z,86.60
2022-12-25T22:35:24.496Z,70.70
2022-12-25T22:40:26.346Z,65.30
2022-12-25T22:45:28.055Z,64.60
2022-12-25T22:50:29.570Z,71.50
2022-12-25T22:55:31.171Z,49.20
2022-12-25T23:00:33.050Z,52.60
2022-12-25T23:05:34.618Z,61.40
2022-12-25T23:10:36.200Z,72.70
2022-12-25T23:15:37.944Z,65.40
2022-12-25T23:20:58.355Z,61.60
2022-12-25T23:26:09.763Z,74.30
2022-12-25T23:31:11.308Z,36.10
2022-12-25T23:36:12.960Z,62.00
2022-12-25T23:41:14.491Z,46.00
2022-12-25T23:46:16.171Z,58.90
2022-12-25T23:51:18.157Z,51.60
2022-12-25T23:56:19.857Z,62.30
